Stations météo

réclame
Mon MeteoGroup
Diepenbeek, Belgique (6477): Température de l'air & dewpoint: 06.11.2019 05:00:00 - 12.11.2019 05:00:00 (CET)Diepenbeek, Belgique (6477): Vitesse du vent & gusts: 06.11.2019 05:00:00 - 12.11.2019 05:00:00 (CET)Diepenbeek, Belgique (6477): Direction du vent: 06.11.2019 05:00:00 - 12.11.2019 05:00:00 (CET)Diepenbeek, Belgique (6477): reduced air pressure: 06.11.2019 05:00:00 - 12.11.2019 05:00:00 (CET)Diepenbeek, Belgique (6477): Ensoleillement: 06.11.2019 05:00:00 - 12.11.2019 05:00:00 (CET)Diepenbeek, Belgique (6477): Quantités de précipitations: 06.11.2019 05:00:00 - 12.11.2019 05:00:00 (CET)
Date & Time tt [°C] td [°C] ff [km/h] ff [knt] fx [km/h] fx [knt] dd ppp [hPa] sd [min] rr [mm]
12.11.2019 05:00:00 5,0 3,3 16 9 33 18 SSW 1003,0 0 0,0
12.11.2019 04:00:00 4,6 3,0 17 9 31 17 SSW 1003,3 0 0,0
12.11.2019 03:00:00 4,5 3,2 16 9 28 15 SSW 1003,8 0 0,0
12.11.2019 02:00:00 4,3 2,9 14 8 29 16 SSW 1003,6 0 0,0
12.11.2019 01:00:00 4,5 2,9 18 10 28 15 SW 1004,0 0 0,0
12.11.2019 00:00:00 5,1 3,4 17 9 30 16 SSW 1003,8 0 0,0
11.11.2019 23:00:00 5,5 4,1 16 9 29 16 SSW 1003,8 0 0,0
11.11.2019 22:00:00 5,5 4,4 15 8 23 13 SW 1003,6 0 0,0
11.11.2019 21:00:00 5,6 4,6 16 9 24 13 SSW 1003,4 0 0,0
11.11.2019 20:00:00 5,5 4,7 13 7 22 12 SSW 1003,1 0 0,0
11.11.2019 19:00:00 5,7 4,5 14 8 26 14 SSW 1002,8 0 0,0
11.11.2019 18:00:00 6,0 4,8 16 9 31 17 SW 1002,7 0 0,0
11.11.2019 17:00:00 5,9 4,9 19 10 35 19 SSW 1002,3 0 0,2
11.11.2019 16:00:00 6,4 5,4 18 10 42 23 SW 1002,2 0 0,7
11.11.2019 15:00:00 7,3 5,0 26 14 52 28 SSW 1002,3 0 0,0
11.11.2019 14:00:00 8,2 4,3 29 16 52 28 SSW 1002,8 0 0,0
11.11.2019 13:00:00 8,2 4,1 29 16 54 29 SSW 1003,8 0 0,0
11.11.2019 12:00:00 8,2 4,2 29 16 44 24 S 1005,0 0 0,0
11.11.2019 11:00:00 8,1 4,5 23 12 45 25 S 1006,1 53 0,0
11.11.2019 10:00:00 6,6 3,7 20 11 34 18 S 1006,6 45 0,0
11.11.2019 09:00:00 6,0 3,7 14 8 22 12 SSE 1008,0 7 0,0
11.11.2019 08:00:00 5,9 3,8 13 7 22 12 S 1008,7 0 0,0
11.11.2019 07:00:00 6,0 4,0 11 6 24 13 S 1009,2 0 0,0
11.11.2019 06:00:00 5,9 4,2 13 7 21 11 S 1010,1 0 0,0
11.11.2019 05:00:00 5,4 4,1 12 7 18 10 S 1011,6 0 0,0
11.11.2019 04:00:00 4,0 3,9 7 4 13 7 S 1012,6 0 0,0
11.11.2019 03:00:00 1,5 1,5 8 4 12 7 SSE 1013,0 0 0,0
11.11.2019 02:00:00 0,0 0,0 4 2 7 4 E 1014,2 0 0,0
11.11.2019 01:00:00 -0,5 -0,5 4 2 8 4 ESE 1014,9 0 0,0
11.11.2019 00:00:00 -0,7 -0,7 8 5 11 6 SE 1014,2 0 0,0
10.11.2019 23:00:00 -1,1 -1,1 5 3 7 4 SE 1014,9 0 0,0
10.11.2019 22:00:00 -0,2 -0,2 0 0 5 3 N 1014,9 0 0,0
10.11.2019 21:00:00 0,0 0,0 4 2 5 3 ESE 1015,3 0 0,0
10.11.2019 20:00:00 1,2 1,2 0 0 5 3 N 1015,6 0 0,0
10.11.2019 19:00:00 2,3 2,1 0 0 4 2 N 1015,8 0 0,0
10.11.2019 18:00:00 4,6 3,2 0 0 8 4 N 1015,4 0 0,0
10.11.2019 17:00:00 8,0 3,7 4 2 9 5 NE 1014,9 50 0,0
10.11.2019 16:00:00 10,0 3,2 4 2 9 5 ESE 1014,1 60 0,0
10.11.2019 15:00:00 11,5 2,6 0 0 10 6 N 1013,2 60 0,0
10.11.2019 14:00:00 10,4 3,2 5 3 10 6 E 1013,2 60 0,0
10.11.2019 13:00:00 9,9 4,3 4 2 10 5 ENE 1013,1 60 0,0
10.11.2019 12:00:00 8,0 4,1 6 3 9 5 NE 1013,2 60 0,0
10.11.2019 11:00:00 6,1 4,1 4 2 4 2 SSW 1013,2 60 0,0
10.11.2019 10:00:00 2,2 1,7 0 0 4 2 N 1012,7 60 0,1
10.11.2019 09:00:00 -1,1 -1,1 4 2 4 2 SSE 1012,0 51 0,0
10.11.2019 08:00:00 -2,0 -2,0 5 3 7 4 E 1011,4 0 0,0
10.11.2019 07:00:00 -2,2 -2,2 0 0 3 2 N 1010,5 0 0,0
10.11.2019 06:00:00 -2,1 -2,1 0 0 6 3 N 1010,0 0 0,0
10.11.2019 05:00:00 -2,2 -2,2 0 0 1 1 N 1009,4 0 0,0
10.11.2019 04:00:00 -1,6 -1,6 0 0 3 2 N 1009,0 0 0,0
10.11.2019 03:00:00 -1,0 -1,0 0 0 5 3 N 1009,0 0 0,0
10.11.2019 02:00:00 -1,0 -1,0 5 3 7 4 ESE 1008,8 0 0,0
10.11.2019 01:00:00 -0,3 -0,3 4 2 4 2 ENE 1008,6 0 0,0
10.11.2019 00:00:00 -0,3 -0,3 4 2 7 4 E 1008,4 0 0,0
09.11.2019 23:00:00 0,0 0,0 5 3 9 5 ESE 1008,3 0 0,0
09.11.2019 22:00:00 1,4 1,1 6 3 7 4 ESE 1008,2 0 0,0
09.11.2019 21:00:00 1,0 1,0 5 3 7 4 SE 1008,4 0 0,0
09.11.2019 20:00:00 1,6 1,4 6 3 8 4 SE 1008,3 0 0,0
09.11.2019 19:00:00 2,9 2,0 7 4 10 6 S 1008,5 0 0,0
09.11.2019 18:00:00 4,7 2,6 6 3 10 6 S 1008,4 0 0,0
09.11.2019 17:00:00 6,3 3,2 6 4 16 9 SSW 1008,4 49 0,0
09.11.2019 16:00:00 7,5 3,3 12 7 29 15 SSW 1008,4 56 0,0
09.11.2019 15:00:00 8,0 3,9 18 10 25 14 SW 1008,5 12 0,0
09.11.2019 14:00:00 7,5 4,4 13 7 32 17 WSW 1008,9 4 0,0
09.11.2019 13:00:00 7,3 4,9 18 10 31 17 SW 1009,1 6 0,0
09.11.2019 12:00:00 7,8 5,9 20 11 34 18 SW 1009,4 10 0,0
09.11.2019 11:00:00 6,7 5,4 17 9 28 15 SW 1009,8 8 0,0
09.11.2019 10:00:00 6,4 5,4 18 10 32 17 SW 1009,5 22 0,0
09.11.2019 09:00:00 5,9 5,2 16 8 25 14 SW 1009,6 0 0,0
09.11.2019 08:00:00 5,5 4,9 13 7 23 13 SW 1009,5 0 0,0
09.11.2019 07:00:00 5,5 4,9 14 8 26 14 SW 1009,5 0 0,0
09.11.2019 06:00:00 5,4 5,3 11 6 23 12 WSW 1009,3 0 0,0
09.11.2019 05:00:00 4,9 4,9 8 4 15 8 SW 1009,2 0 0,0
09.11.2019 04:00:00 4,4 4,4 10 5 17 9 SW 1009,5 0 0,1
09.11.2019 03:00:00 3,4 3,4 6 4 11 6 SW 1009,5 0 0,2
09.11.2019 02:00:00 1,5 1,5 4 2 8 5 SSE 1009,3 0 0,0
09.11.2019 01:00:00 0,5 0,5 4 2 5 3 SSW 1009,5 0 0,0
09.11.2019 00:00:00 0,4 0,4 4 2 5 3 S 1009,5 0 0,0
08.11.2019 23:00:00 0,9 0,9 0 0 4 2 N 1009,6 0 0,0
08.11.2019 22:00:00 1,2 1,2 0 0 5 3 N 1009,3 0 0,0
08.11.2019 21:00:00 2,1 2,1 4 2 5 3 ESE 1009,2 0 0,0
08.11.2019 20:00:00 2,7 2,7 4 2 5 3 SE 1008,8 0 0,0
08.11.2019 19:00:00 3,5 3,5 4 2 4 2 SSE 1008,3 0 0,0
08.11.2019 18:00:00 5,7 4,9 4 2 5 3 WNW 1008,0 0 0,0
08.11.2019 17:00:00 8,8 5,6 4 2 8 4 W 1007,6 52 0,0
08.11.2019 16:00:00 10,1 5,7 4 2 9 5 SW 1007,0 60 0,0
08.11.2019 15:00:00 10,7 5,6 4 2 9 5 WSW 1006,4 49 0,0
08.11.2019 14:00:00 10,7 5,6 4 2 8 4 S 1006,5 55 0,0
08.11.2019 13:00:00 9,2 5,3 4 2 8 5 S 1006,6 60 0,0
08.11.2019 12:00:00 8,9 5,3 4 2 14 7 SSW 1006,6 60 0,0
08.11.2019 11:00:00 7,5 5,0 8 4 12 7 SSE 1006,9 60 0,0
08.11.2019 10:00:00 5,5 4,0 6 3 12 7 SE 1006,5 60 0,0
08.11.2019 09:00:00 1,6 1,6 6 3 9 5 ESE 1006,3 26 0,0
08.11.2019 08:00:00 1,1 1,1 0 0 6 3 N 1005,7 0 0,0
08.11.2019 07:00:00 2,1 1,9 7 4 10 5 SSE 1005,2 0 0,0
08.11.2019 06:00:00 3,2 2,4 9 5 13 7 SSE 1004,8 0 0,0
08.11.2019 05:00:00 3,5 2,5 7 4 16 8 SE 1004,4 0 0,0
08.11.2019 04:00:00 4,0 2,9 11 6 19 10 SSE 1004,2 0 0,0
08.11.2019 03:00:00 2,0 2,0 7 4 9 5 SSE 1003,6 0 0,0
08.11.2019 02:00:00 3,5 2,9 6 4 11 6 SSE 1003,5 0 0,0
08.11.2019 01:00:00 4,7 3,5 7 4 14 7 SSE 1003,4 0 0,0
08.11.2019 00:00:00 5,5 4,0 11 6 16 9 S 1003,3 0 0,0
07.11.2019 23:00:00 5,2 3,9 9 5 17 9 S 1003,1 0 0,0
07.11.2019 22:00:00 6,1 4,4 14 8 21 11 SSW 1002,6 0 0,0
07.11.2019 21:00:00 6,0 4,5 10 6 24 13 SSW 1002,2 0 0,0
07.11.2019 20:00:00 6,6 4,5 16 8 25 14 SSW 1001,5 0 0,0
07.11.2019 19:00:00 6,4 4,6 11 6 29 16 SSW 1001,0 0 0,0
07.11.2019 18:00:00 7,2 4,8 23 12 37 20 SW 1000,2 0 0,0
07.11.2019 17:00:00 7,5 6,1 14 7 26 14 SSW 998,8 13 0,2
07.11.2019 16:00:00 7,8 6,3 16 9 54 29 SW 998,2 7 0,9
07.11.2019 15:00:00 10,9 6,8 20 11 41 22 WSW 996,5 36 0,0
07.11.2019 14:00:00 10,4 7,8 25 14 41 22 WSW 995,8 9 0,1
07.11.2019 13:00:00 9,3 8,1 18 10 33 18 S 995,1 0 0,5
07.11.2019 12:00:00 9,9 7,5 14 8 29 16 SSE 994,9 0 0,4
07.11.2019 11:00:00 9,3 7,9 13 7 22 12 SE 995,3 0 0,4
07.11.2019 10:00:00 9,4 7,3 13 7 20 11 SE 995,6 0 0,0
07.11.2019 09:00:00 9,1 7,3 12 6 21 11 SE 996,1 0 0,0
07.11.2019 08:00:00 9,0 7,5 12 6 18 10 SSE 996,6 0 0,0
07.11.2019 07:00:00 8,9 7,5 14 8 24 13 SSE 997,3 0 0,0
07.11.2019 06:00:00 8,4 7,5 9 5 14 8 SE 998,1 0 0,0
07.11.2019 05:00:00 8,1 7,7 7 4 13 7 SE 998,8 0 0,0
07.11.2019 04:00:00 8,0 8,0 8 4 10 6 SE 999,5 0 0,1
07.11.2019 03:00:00 7,9 7,9 9 5 12 6 SE 1000,1 0 0,0
07.11.2019 02:00:00 6,7 6,7 5 3 8 4 SSE 1001,1 0 0,0
07.11.2019 01:00:00 7,1 7,1 4 2 9 5 SE 1001,6 0 0,0
07.11.2019 00:00:00 7,5 7,5 4 2 7 4 SSE 1002,3 0 0,0
06.11.2019 23:00:00 8,1 8,1 5 3 6 4 SE 1002,8 0 0,0
06.11.2019 22:00:00 8,5 8,5 5 3 13 7 S 1003,4 0 0,3
06.11.2019 21:00:00 8,0 8,0 4 2 5 3 SSE 1003,6 0 0,0
06.11.2019 20:00:00 8,1 8,1 0 0 6 3 N 1003,7 0 0,0
06.11.2019 19:00:00 8,5 8,2 4 2 9 5 SSW 1004,0 0 0,0
06.11.2019 18:00:00 8,8 8,5 4 2 7 4 S 1004,1 0 0,0
06.11.2019 17:00:00 9,4 8,4 0 0 5 3 N 1003,9 0 0,0
06.11.2019 16:00:00 10,2 7,7 5 3 7 4 W 1004,0 16 0,0
06.11.2019 15:00:00 9,9 8,0 4 2 - - N 1004,0 0 -
06.11.2019 14:00:00 - - - - - - - - - -
06.11.2019 13:00:00 9,8 8,5 5 3 9 5 NW 1004,0 0 0,0
06.11.2019 12:00:00 9,5 8,1 6 3 12 6 NW 1004,0 0 0,0
06.11.2019 11:00:00 9,3 9,0 5 3 8 5 NW 1003,9 0 0,0
06.11.2019 10:00:00 8,6 8,6 6 3 8 5 NW 1003,5 0 0,0
06.11.2019 09:00:00 8,4 8,4 6 3 12 6 WNW 1003,1 0 0,1
06.11.2019 08:00:00 8,3 8,3 5 3 10 5 W 1002,4 0 0,2
06.11.2019 07:00:00 8,0 8,0 7 4 14 8 WSW 1001,8 0 0,1
06.11.2019 06:00:00 7,8 7,6 6 4 10 6 WSW 1001,6 0 0,0
06.11.2019 05:00:00 7,2 7,2 4 2 7 4 SSW 1001,4 0 0,0

tt = Température de l'air
td = dewpoint
ff = Vitesse du vent
fx = gusts
dd = Direction du vent
ppp = reduced air pressure
sd = Ensoleillement
rr = Quantités de précipitations

stations d'obs. à proximité